sensor_id;sensor_type;location;lat;lon;timestamp;pressure;altitude;pressure_sealevel;temperature;humidity
77011;BME280;65945;53.148;17.956;2023-09-19T00:00:31;100192.53;;;20.22;67.23
77011;BME280;65945;53.148;17.956;2023-09-19T00:03:20;100186.96;;;20.19;67.52
77011;BME280;65945;53.148;17.956;2023-09-19T00:05:46;100189.20;;;20.15;67.49
77011;BME280;65945;53.148;17.956;2023-09-19T00:08:14;100186.66;;;20.10;67.66
77011;BME280;65945;53.148;17.956;2023-09-19T00:10:41;100190.07;;;20.08;67.85
77011;BME280;65945;53.148;17.956;2023-09-19T00:13:08;100195.34;;;20.05;67.75
77011;BME280;65945;53.148;17.956;2023-09-19T00:15:41;100199.21;;;20.02;68.10
77011;BME280;65945;53.148;17.956;2023-09-19T00:18:08;100202.60;;;20.00;68.37
77011;BME280;65945;53.148;17.956;2023-09-19T00:20:36;100206.23;;;19.98;68.51
77011;BME280;65945;53.148;17.956;2023-09-19T00:23:03;100213.53;;;19.97;68.79
77011;BME280;65945;53.148;17.956;2023-09-19T00:25:35;100212.86;;;19.96;69.02
77011;BME280;65945;53.148;17.956;2023-09-19T00:28:04;100212.82;;;19.98;69.71
77011;BME280;65945;53.148;17.956;2023-09-19T00:30:31;100211.40;;;20.02;69.93
77011;BME280;65945;53.148;17.956;2023-09-19T00:32:59;100209.31;;;20.05;70.50
77011;BME280;65945;53.148;17.956;2023-09-19T00:35:28;100208.34;;;20.09;70.87
77011;BME280;65945;53.148;17.956;2023-09-19T00:37:55;100212.11;;;20.14;71.16
77011;BME280;65945;53.148;17.956;2023-09-19T00:40:22;100212.77;;;20.16;71.13
77011;BME280;65945;53.148;17.956;2023-09-19T00:42:49;100208.65;;;20.17;71.33
77011;BME280;65945;53.148;17.956;2023-09-19T00:45:17;100208.09;;;20.17;70.89
77011;BME280;65945;53.148;17.956;2023-09-19T00:47:47;100208.10;;;20.17;71.04
77011;BME280;65945;53.148;17.956;2023-09-19T00:50:19;100209.17;;;20.18;71.19
77011;BME280;65945;53.148;17.956;2023-09-19T00:52:50;100201.56;;;20.18;71.09
77011;BME280;65945;53.148;17.956;2023-09-19T00:55:19;100194.96;;;20.18;71.21
77011;BME280;65945;53.148;17.956;2023-09-19T00:57:46;100192.54;;;20.19;71.17
77011;BME280;65945;53.148;17.956;2023-09-19T01:00:13;100192.30;;;20.20;71.83
77011;BME280;65945;53.148;17.956;2023-09-19T01:02:42;100190.61;;;20.22;71.18
77011;BME280;65945;53.148;17.956;2023-09-19T01:05:10;100193.13;;;20.20;71.40
77011;BME280;65945;53.148;17.956;2023-09-19T01:07:37;100190.36;;;20.19;71.38
77011;BME280;65945;53.148;17.956;2023-09-19T01:10:08;100190.07;;;20.18;71.48
77011;BME280;65945;53.148;17.956;2023-09-19T01:18:26;100183.38;;;20.12;71.50
77011;BME280;65945;53.148;17.956;2023-09-19T01:24:31;100185.40;;;20.06;72.14
77011;BME280;65945;53.148;17.956;2023-09-19T01:29:38;100173.15;;;19.96;72.55
77011;BME280;65945;53.148;17.956;2023-09-19T01:32:06;100164.42;;;19.91;72.82
77011;BME280;65945;53.148;17.956;2023-09-19T01:34:56;100154.48;;;19.85;72.62
77011;BME280;65945;53.148;17.956;2023-09-19T01:37:30;100134.97;;;19.81;73.01
77011;BME280;65945;53.148;17.956;2023-09-19T01:40:06;100126.40;;;19.76;72.89
77011;BME280;65945;53.148;17.956;2023-09-19T01:43:09;100128.44;;;19.72;73.04
77011;BME280;65945;53.148;17.956;2023-09-19T01:45:45;100137.01;;;19.66;73.40
77011;BME280;65945;53.148;17.956;2023-09-19T01:48:23;100148.61;;;19.61;73.70
77011;BME280;65945;53.148;17.956;2023-09-19T01:51:00;100161.67;;;19.56;74.08
77011;BME280;65945;53.148;17.956;2023-09-19T01:53:45;100167.53;;;19.51;74.52
77011;BME280;65945;53.148;17.956;2023-09-19T01:56:25;100161.70;;;19.45;74.89
77011;BME280;65945;53.148;17.956;2023-09-19T01:58:57;100158.08;;;19.40;74.95
77011;BME280;65945;53.148;17.956;2023-09-19T02:01:27;100164.57;;;19.34;75.10
77011;BME280;65945;53.148;17.956;2023-09-19T02:03:54;100166.28;;;19.30;75.42
77011;BME280;65945;53.148;17.956;2023-09-19T02:06:23;100165.00;;;19.24;75.82
77011;BME280;65945;53.148;17.956;2023-09-19T02:08:51;100169.23;;;19.18;76.13
77011;BME280;65945;53.148;17.956;2023-09-19T02:11:19;100172.56;;;19.14;76.48
77011;BME280;65945;53.148;17.956;2023-09-19T02:13:46;100170.48;;;19.10;76.72
77011;BME280;65945;53.148;17.956;2023-09-19T02:16:16;100176.52;;;19.07;77.21
77011;BME280;65945;53.148;17.956;2023-09-19T02:18:43;100177.70;;;19.02;77.71
77011;BME280;65945;53.148;17.956;2023-09-19T02:21:09;100181.29;;;18.97;78.45
77011;BME280;65945;53.148;17.956;2023-09-19T02:23:38;100170.55;;;18.92;78.70
77011;BME280;65945;53.148;17.956;2023-09-19T02:26:05;100163.94;;;18.85;78.65
77011;BME280;65945;53.148;17.956;2023-09-19T02:28:32;100165.05;;;18.80;78.94
77011;BME280;65945;53.148;17.956;2023-09-19T02:30:59;100158.30;;;18.77;79.70
77011;BME280;65945;53.148;17.956;2023-09-19T02:33:26;100158.30;;;18.73;79.64
77011;BME280;65945;53.148;17.956;2023-09-19T02:35:56;100162.04;;;18.68;79.89
77011;BME280;65945;53.148;17.956;2023-09-19T02:38:27;100165.43;;;18.65;80.40
77011;BME280;65945;53.148;17.956;2023-09-19T02:40:55;100171.48;;;18.60;80.86
77011;BME280;65945;53.148;17.956;2023-09-19T02:43:22;100178.44;;;18.56;80.98
77011;BME280;65945;53.148;17.956;2023-09-19T02:45:49;100182.43;;;18.53;81.74
77011;BME280;65945;53.148;17.956;2023-09-19T02:48:16;100168.80;;;18.49;81.65
77011;BME280;65945;53.148;17.956;2023-09-19T02:50:45;100180.94;;;18.46;81.84
77011;BME280;65945;53.148;17.956;2023-09-19T02:53:12;100200.94;;;18.44;82.58
77011;BME280;65945;53.148;17.956;2023-09-19T02:55:39;100194.64;;;18.41;82.83
77011;BME280;65945;53.148;17.956;2023-09-19T02:58:09;100177.41;;;18.38;83.09
77011;BME280;65945;53.148;17.956;2023-09-19T03:00:37;100187.45;;;18.34;83.08
77011;BME280;65945;53.148;17.956;2023-09-19T03:03:04;100193.77;;;18.32;83.19
77011;BME280;65945;53.148;17.956;2023-09-19T03:05:33;100197.27;;;18.30;83.23
77011;BME280;65945;53.148;17.956;2023-09-19T03:08:00;100192.29;;;18.28;83.44
77011;BME280;65945;53.148;17.956;2023-09-19T03:10:27;100194.11;;;18.26;83.66
77011;BME280;65945;53.148;17.956;2023-09-19T03:12:54;100193.98;;;18.25;83.67
77011;BME280;65945;53.148;17.956;2023-09-19T03:15:21;100192.69;;;18.23;84.01
77011;BME280;65945;53.148;17.956;2023-09-19T03:17:50;100191.26;;;18.21;84.07
77011;BME280;65945;53.148;17.956;2023-09-19T03:20:23;100187.42;;;18.19;84.24
77011;BME280;65945;53.148;17.956;2023-09-19T03:22:50;100185.13;;;18.17;84.19
77011;BME280;65945;53.148;17.956;2023-09-19T03:25:16;100188.23;;;18.17;84.51
77011;BME280;65945;53.148;17.956;2023-09-19T03:27:45;100193.05;;;18.16;84.55
77011;BME280;65945;53.148;17.956;2023-09-19T03:30:12;100191.37;;;18.14;84.62
77011;BME280;65945;53.148;17.956;2023-09-19T03:32:47;100190.38;;;18.13;84.63
77011;BME280;65945;53.148;17.956;2023-09-19T03:35:17;100185.52;;;18.12;84.75
77011;BME280;65945;53.148;17.956;2023-09-19T03:37:43;100177.90;;;18.10;84.94
77011;BME280;65945;53.148;17.956;2023-09-19T03:40:11;100180.23;;;18.09;84.61
77011;BME280;65945;53.148;17.956;2023-09-19T03:42:41;100181.88;;;18.08;84.77
77011;BME280;65945;53.148;17.956;2023-09-19T03:45:10;100185.08;;;18.06;84.85
77011;BME280;65945;53.148;17.956;2023-09-19T03:47:42;100187.42;;;18.04;84.92
77011;BME280;65945;53.148;17.956;2023-09-19T03:50:09;100189.61;;;18.03;85.10
77011;BME280;65945;53.148;17.956;2023-09-19T03:52:41;100188.56;;;18.01;85.28
77011;BME280;65945;53.148;17.956;2023-09-19T03:55:08;100187.81;;;17.99;85.25
77011;BME280;65945;53.148;17.956;2023-09-19T03:57:37;100190.55;;;17.98;85.77
77011;BME280;65945;53.148;17.956;2023-09-19T04:00:05;100191.73;;;17.96;86.02
77011;BME280;65945;53.148;17.956;2023-09-19T04:02:39;100185.19;;;17.95;85.94
77011;BME280;65945;53.148;17.956;2023-09-19T04:05:07;100177.08;;;17.93;85.90
77011;BME280;65945;53.148;17.956;2023-09-19T04:07:33;100170.20;;;17.93;85.83
77011;BME280;65945;53.148;17.956;2023-09-19T04:10:18;100162.70;;;17.93;85.83
77011;BME280;65945;53.148;17.956;2023-09-19T04:12:55;100160.92;;;17.93;85.93
77011;BME280;65945;53.148;17.956;2023-09-19T04:15:23;100151.20;;;17.92;85.94
77011;BME280;65945;53.148;17.956;2023-09-19T04:17:51;100152.06;;;17.91;85.92
77011;BME280;65945;53.148;17.956;2023-09-19T04:20:18;100150.70;;;17.90;85.95
77011;BME280;65945;53.148;17.956;2023-09-19T04:22:52;100159.17;;;17.87;86.03
77011;BME280;65945;53.148;17.956;2023-09-19T04:25:18;100159.15;;;17.83;86.15
77011;BME280;65945;53.148;17.956;2023-09-19T04:27:45;100155.91;;;17.78;86.06
77011;BME280;65945;53.148;17.956;2023-09-19T04:30:13;100164.77;;;17.74;86.30
77011;BME280;65945;53.148;17.956;2023-09-19T04:32:41;100164.56;;;17.69;86.33
77011;BME280;65945;53.148;17.956;2023-09-19T04:35:09;100165.39;;;17.65;86.42
77011;BME280;65945;53.148;17.956;2023-09-19T04:37:40;100175.20;;;17.60;86.57
77011;BME280;65945;53.148;17.956;2023-09-19T04:40:09;100176.66;;;17.55;86.96
77011;BME280;65945;53.148;17.956;2023-09-19T04:42:40;100177.02;;;17.51;87.06
77011;BME280;65945;53.148;17.956;2023-09-19T04:45:08;100178.23;;;17.47;87.15
77011;BME280;65945;53.148;17.956;2023-09-19T04:47:38;100174.23;;;17.44;87.25
77011;BME280;65945;53.148;17.956;2023-09-19T04:50:07;100177.14;;;17.41;87.21
77011;BME280;65945;53.148;17.956;2023-09-19T04:52:34;100178.39;;;17.40;87.44
77011;BME280;65945;53.148;17.956;2023-09-19T04:55:01;100179.95;;;17.39;87.38
77011;BME280;65945;53.148;17.956;2023-09-19T04:57:28;100176.34;;;17.38;87.57
77011;BME280;65945;53.148;17.956;2023-09-19T04:59:54;100174.70;;;17.38;87.72
77011;BME280;65945;53.148;17.956;2023-09-19T05:02:21;100172.53;;;17.39;87.80
77011;BME280;65945;53.148;17.956;2023-09-19T05:04:47;100173.98;;;17.39;88.06
77011;BME280;65945;53.148;17.956;2023-09-19T05:07:14;100173.67;;;17.40;88.27
77011;BME280;65945;53.148;17.956;2023-09-19T05:09:41;100172.73;;;17.41;88.20
77011;BME280;65945;53.148;17.956;2023-09-19T05:12:08;100165.42;;;17.44;88.20
77011;BME280;65945;53.148;17.956;2023-09-19T05:14:37;100169.27;;;17.46;88.35
77011;BME280;65945;53.148;17.956;2023-09-19T05:17:03;100171.13;;;17.48;88.40
77011;BME280;65945;53.148;17.956;2023-09-19T05:19:30;100175.86;;;17.50;88.39
77011;BME280;65945;53.148;17.956;2023-09-19T05:21:57;100175.36;;;17.53;88.59
77011;BME280;65945;53.148;17.956;2023-09-19T05:24:23;100173.71;;;17.55;88.44
77011;BME280;65945;53.148;17.956;2023-09-19T05:26:52;100172.29;;;17.58;88.44
77011;BME280;65945;53.148;17.956;2023-09-19T05:29:19;100178.52;;;17.60;88.51
77011;BME280;65945;53.148;17.956;2023-09-19T05:31:46;100187.50;;;17.64;88.40
77011;BME280;65945;53.148;17.956;2023-09-19T05:34:13;100192.70;;;17.68;88.49
77011;BME280;65945;53.148;17.956;2023-09-19T05:36:40;100196.30;;;17.71;88.47
77011;BME280;65945;53.148;17.956;2023-09-19T05:39:07;100198.14;;;17.72;88.46
77011;BME280;65945;53.148;17.956;2023-09-19T05:41:36;100194.40;;;17.73;88.47
77011;BME280;65945;53.148;17.956;2023-09-19T05:44:03;100200.89;;;17.74;88.43
77011;BME280;65945;53.148;17.956;2023-09-19T05:46:30;100201.02;;;17.74;88.42
77011;BME280;65945;53.148;17.956;2023-09-19T05:48:56;100197.63;;;17.75;88.55
77011;BME280;65945;53.148;17.956;2023-09-19T05:51:23;100192.60;;;17.75;88.29
77011;BME280;65945;53.148;17.956;2023-09-19T05:53:50;100188.80;;;17.76;88.41
77011;BME280;65945;53.148;17.956;2023-09-19T05:56:16;100190.04;;;17.76;88.72
77011;BME280;65945;53.148;17.956;2023-09-19T05:58:45;100189.51;;;17.75;88.56
77011;BME280;65945;53.148;17.956;2023-09-19T06:01:12;100201.58;;;17.74;88.74
77011;BME280;65945;53.148;17.956;2023-09-19T06:03:38;100205.91;;;17.73;88.76
77011;BME280;65945;53.148;17.956;2023-09-19T06:06:05;100206.70;;;17.72;88.70
77011;BME280;65945;53.148;17.956;2023-09-19T06:08:32;100207.44;;;17.70;88.50
77011;BME280;65945;53.148;17.956;2023-09-19T06:11:00;100211.23;;;17.69;88.56
77011;BME280;65945;53.148;17.956;2023-09-19T06:13:29;100207.77;;;17.70;88.52
77011;BME280;65945;53.148;17.956;2023-09-19T06:15:56;100210.60;;;17.70;88.73
77011;BME280;65945;53.148;17.956;2023-09-19T06:18:23;100212.48;;;17.69;88.63
77011;BME280;65945;53.148;17.956;2023-09-19T06:20:52;100212.41;;;17.68;88.58
77011;BME280;65945;53.148;17.956;2023-09-19T06:23:20;100217.30;;;17.67;88.60
77011;BME280;65945;53.148;17.956;2023-09-19T06:25:46;100218.99;;;17.67;88.59
77011;BME280;65945;53.148;17.956;2023-09-19T06:28:13;100221.33;;;17.67;88.26
77011;BME280;65945;53.148;17.956;2023-09-19T06:30:41;100224.15;;;17.68;88.44
77011;BME280;65945;53.148;17.956;2023-09-19T06:33:08;100230.17;;;17.69;88.26
77011;BME280;65945;53.148;17.956;2023-09-19T06:35:35;100231.63;;;17.70;88.33
77011;BME280;65945;53.148;17.956;2023-09-19T06:38:02;100230.31;;;17.70;88.31
77011;BME280;65945;53.148;17.956;2023-09-19T06:40:29;100237.11;;;17.71;88.32
77011;BME280;65945;53.148;17.956;2023-09-19T06:42:57;100242.10;;;17.73;88.44
77011;BME280;65945;53.148;17.956;2023-09-19T06:45:24;100239.30;;;17.74;88.26
77011;BME280;65945;53.148;17.956;2023-09-19T06:47:53;100237.89;;;17.76;88.15
77011;BME280;65945;53.148;17.956;2023-09-19T06:50:24;100247.03;;;17.79;88.00
77011;BME280;65945;53.148;17.956;2023-09-19T06:52:53;100246.70;;;17.81;88.16
77011;BME280;65945;53.148;17.956;2023-09-19T06:55:21;100246.70;;;17.82;88.34
77011;BME280;65945;53.148;17.956;2023-09-19T06:57:50;100249.55;;;17.82;88.13
77011;BME280;65945;53.148;17.956;2023-09-19T07:00:17;100251.92;;;17.84;87.99
77011;BME280;65945;53.148;17.956;2023-09-19T07:02:45;100249.87;;;17.86;88.01
77011;BME280;65945;53.148;17.956;2023-09-19T07:05:12;100253.85;;;17.89;88.01
77011;BME280;65945;53.148;17.956;2023-09-19T07:07:38;100252.47;;;17.93;87.80
77011;BME280;65945;53.148;17.956;2023-09-19T07:10:06;100255.65;;;17.99;87.77
77011;BME280;65945;53.148;17.956;2023-09-19T07:12:36;100254.58;;;18.04;87.61
77011;BME280;65945;53.148;17.956;2023-09-19T07:15:03;100259.60;;;18.13;87.63
77011;BME280;65945;53.148;17.956;2023-09-19T07:17:32;100262.80;;;18.22;87.47
77011;BME280;65945;53.148;17.956;2023-09-19T07:19:59;100263.94;;;18.27;87.19
77011;BME280;65945;53.148;17.956;2023-09-19T07:22:26;100265.79;;;18.32;87.10
77011;BME280;65945;53.148;17.956;2023-09-19T07:24:53;100262.45;;;18.38;86.93
77011;BME280;65945;53.148;17.956;2023-09-19T07:27:20;100270.39;;;18.42;86.77
77011;BME280;65945;53.148;17.956;2023-09-19T07:29:46;100267.39;;;18.45;86.47
77011;BME280;65945;53.148;17.956;2023-09-19T07:32:13;100271.79;;;18.51;86.56
77011;BME280;65945;53.148;17.956;2023-09-19T07:34:40;100274.39;;;18.62;86.23
77011;BME280;65945;53.148;17.956;2023-09-19T07:37:07;100279.04;;;18.70;85.86
77011;BME280;65945;53.148;17.956;2023-09-19T07:39:36;100276.89;;;18.74;85.10
77011;BME280;65945;53.148;17.956;2023-09-19T07:42:02;100284.90;;;18.77;85.10
77011;BME280;65945;53.148;17.956;2023-09-19T07:44:29;100289.05;;;18.78;84.85
77011;BME280;65945;53.148;17.956;2023-09-19T07:46:56;100291.17;;;18.76;84.28
77011;BME280;65945;53.148;17.956;2023-09-19T07:49:23;100295.09;;;18.73;84.58
77011;BME280;65945;53.148;17.956;2023-09-19T07:51:49;100298.63;;;18.71;84.67
77011;BME280;65945;53.148;17.956;2023-09-19T07:54:16;100302.74;;;18.70;84.73
77011;BME280;65945;53.148;17.956;2023-09-19T07:56:43;100302.41;;;18.67;84.78
77011;BME280;65945;53.148;17.956;2023-09-19T07:59:12;100305.20;;;18.67;84.75
77011;BME280;65945;53.148;17.956;2023-09-19T08:01:40;100305.52;;;18.70;84.89
77011;BME280;65945;53.148;17.956;2023-09-19T08:04:07;100305.01;;;18.73;84.83
77011;BME280;65945;53.148;17.956;2023-09-19T08:06:34;100306.55;;;18.78;84.79
77011;BME280;65945;53.148;17.956;2023-09-19T08:09:00;100304.28;;;18.84;84.75
77011;BME280;65945;53.148;17.956;2023-09-19T08:11:33;100304.25;;;18.86;84.51
77011;BME280;65945;53.148;17.956;2023-09-19T08:14:00;100304.75;;;18.88;84.30
77011;BME280;65945;53.148;17.956;2023-09-19T08:16:27;100312.12;;;18.96;84.34
77011;BME280;65945;53.148;17.956;2023-09-19T08:18:54;100317.09;;;19.04;84.26
77011;BME280;65945;53.148;17.956;2023-09-19T08:21:22;100320.59;;;19.07;84.13
77011;BME280;65945;53.148;17.956;2023-09-19T08:23:50;100320.94;;;19.09;83.89
77011;BME280;65945;53.148;17.956;2023-09-19T08:26:17;100316.40;;;19.11;83.94
77011;BME280;65945;53.148;17.956;2023-09-19T08:28:43;100317.40;;;19.12;83.76
77011;BME280;65945;53.148;17.956;2023-09-19T08:31:10;100326.79;;;19.15;83.55
77011;BME280;65945;53.148;17.956;2023-09-19T08:33:37;100330.05;;;19.19;83.46
77011;BME280;65945;53.148;17.956;2023-09-19T08:36:04;100335.29;;;19.25;83.35
77011;BME280;65945;53.148;17.956;2023-09-19T08:38:35;100339.48;;;19.38;83.41
77011;BME280;65945;53.148;17.956;2023-09-19T08:41:06;100343.91;;;19.53;82.86
77011;BME280;65945;53.148;17.956;2023-09-19T08:43:36;100348.39;;;19.58;81.56
77011;BME280;65945;53.148;17.956;2023-09-19T08:46:10;100354.48;;;19.64;82.08
77011;BME280;65945;53.148;17.956;2023-09-19T08:48:40;100351.54;;;19.71;81.49
77011;BME280;65945;53.148;17.956;2023-09-19T08:51:18;100350.99;;;19.75;81.79
77011;BME280;65945;53.148;17.956;2023-09-19T08:54:07;100350.09;;;19.78;80.85
77011;BME280;65945;53.148;17.956;2023-09-19T08:56:33;100358.87;;;19.81;80.64
77011;BME280;65945;53.148;17.956;2023-09-19T08:59:03;100358.13;;;19.87;80.34
77011;BME280;65945;53.148;17.956;2023-09-19T09:01:36;100360.93;;;19.93;78.99
77011;BME280;65945;53.148;17.956;2023-09-19T09:04:09;100363.38;;;20.02;78.43
77011;BME280;65945;53.148;17.956;2023-09-19T09:06:41;100359.81;;;20.09;78.15
77011;BME280;65945;53.148;17.956;2023-09-19T09:09:09;100356.04;;;20.19;76.79
77011;BME280;65945;53.148;17.956;2023-09-19T09:11:38;100363.23;;;20.24;75.53
77011;BME280;65945;53.148;17.956;2023-09-19T09:14:06;100359.64;;;20.25;75.56
77011;BME280;65945;53.148;17.956;2023-09-19T09:16:34;100355.58;;;20.33;74.74
77011;BME280;65945;53.148;17.956;2023-09-19T09:19:01;100357.45;;;20.45;74.09
77011;BME280;65945;53.148;17.956;2023-09-19T09:21:28;100359.32;;;20.55;73.46
77011;BME280;65945;53.148;17.956;2023-09-19T09:23:54;100358.99;;;20.60;73.70
77011;BME280;65945;53.148;17.956;2023-09-19T09:29:06;100357.15;;;20.68;73.65
77011;BME280;65945;53.148;17.956;2023-09-19T09:31:33;100358.48;;;20.77;73.85
77011;BME280;65945;53.148;17.956;2023-09-19T09:34:00;100356.55;;;20.89;74.08
77011;BME280;65945;53.148;17.956;2023-09-19T09:36:37;100361.11;;;21.00;73.70
77011;BME280;65945;53.148;17.956;2023-09-19T09:39:04;100365.38;;;21.04;71.92
77011;BME280;65945;53.148;17.956;2023-09-19T09:41:51;100372.83;;;21.01;72.56
77011;BME280;65945;53.148;17.956;2023-09-19T09:44:18;100369.45;;;21.03;72.17
77011;BME280;65945;53.148;17.956;2023-09-19T09:46:47;100373.11;;;21.02;71.80
77011;BME280;65945;53.148;17.956;2023-09-19T09:49:22;100370.33;;;21.05;71.40
77011;BME280;65945;53.148;17.956;2023-09-19T09:51:59;100373.19;;;21.02;71.07
77011;BME280;65945;53.148;17.956;2023-09-19T09:54:28;100375.62;;;21.01;70.22
77011;BME280;65945;53.148;17.956;2023-09-19T09:57:09;100370.73;;;21.01;70.16
77011;BME280;65945;53.148;17.956;2023-09-19T09:59:52;100369.77;;;21.11;70.11
77011;BME280;65945;53.148;17.956;2023-09-19T10:02:29;100374.08;;;21.22;69.39
77011;BME280;65945;53.148;17.956;2023-09-19T10:04:59;100382.52;;;21.25;68.67
77011;BME280;65945;53.148;17.956;2023-09-19T10:07:36;100389.80;;;21.27;69.43
77011;BME280;65945;53.148;17.956;2023-09-19T10:10:06;100389.73;;;21.29;69.07
77011;BME280;65945;53.148;17.956;2023-09-19T10:12:44;100388.85;;;21.31;67.95
77011;BME280;65945;53.148;17.956;2023-09-19T10:15:16;100395.70;;;21.33;67.91
77011;BME280;65945;53.148;17.956;2023-09-19T10:17:44;100400.02;;;21.37;67.67
77011;BME280;65945;53.148;17.956;2023-09-19T10:20:13;100399.33;;;21.34;67.76
77011;BME280;65945;53.148;17.956;2023-09-19T10:23:03;100401.52;;;21.31;67.42
77011;BME280;65945;53.148;17.956;2023-09-19T10:25:30;100402.68;;;21.28;66.45
77011;BME280;65945;53.148;17.956;2023-09-19T10:28:05;100407.39;;;21.23;65.57
77011;BME280;65945;53.148;17.956;2023-09-19T10:30:38;100418.17;;;21.18;65.30
77011;BME280;65945;53.148;17.956;2023-09-19T10:33:12;100421.08;;;21.14;65.29
77011;BME280;65945;53.148;17.956;2023-09-19T10:35:43;100430.27;;;21.10;65.05
77011;BME280;65945;53.148;17.956;2023-09-19T10:38:11;100426.06;;;21.10;65.47
77011;BME280;65945;53.148;17.956;2023-09-19T10:40:39;100434.47;;;21.10;65.26
77011;BME280;65945;53.148;17.956;2023-09-19T10:43:15;100433.80;;;21.15;66.24
77011;BME280;65945;53.148;17.956;2023-09-19T10:45:46;100424.81;;;21.23;65.51
77011;BME280;65945;53.148;17.956;2023-09-19T10:48:16;100423.70;;;21.27;64.90
77011;BME280;65945;53.148;17.956;2023-09-19T10:50:50;100425.52;;;21.32;64.98
77011;BME280;65945;53.148;17.956;2023-09-19T10:53:17;100421.45;;;21.33;64.17
77011;BME280;65945;53.148;17.956;2023-09-19T10:56:10;100417.02;;;21.35;64.13
77011;BME280;65945;53.148;17.956;2023-09-19T10:58:43;100412.64;;;21.42;64.78
77011;BME280;65945;53.148;17.956;2023-09-19T11:01:11;100403.55;;;21.45;63.73
77011;BME280;65945;53.148;17.956;2023-09-19T11:03:38;100408.96;;;21.43;64.09
77011;BME280;65945;53.148;17.956;2023-09-19T11:06:16;100408.07;;;21.41;63.40
77011;BME280;65945;53.148;17.956;2023-09-19T11:08:52;100409.94;;;21.39;63.62
77011;BME280;65945;53.148;17.956;2023-09-19T11:11:44;100407.05;;;21.36;62.50
77011;BME280;65945;53.148;17.956;2023-09-19T11:46:21;100435.33;;;22.61;52.49
77011;BME280;65945;53.148;17.956;2023-09-19T11:48:49;100434.48;;;22.61;52.68
77011;BME280;65945;53.148;17.956;2023-09-19T11:51:22;100438.56;;;22.57;52.88
77011;BME280;65945;53.148;17.956;2023-09-19T11:53:51;100439.45;;;22.48;52.41
77011;BME280;65945;53.148;17.956;2023-09-19T11:56:20;100439.52;;;22.38;52.16
77011;BME280;65945;53.148;17.956;2023-09-19T11:58:53;100445.59;;;22.41;52.99
77011;BME280;65945;53.148;17.956;2023-09-19T12:01:29;100443.98;;;22.45;51.42
77011;BME280;65945;53.148;17.956;2023-09-19T12:03:57;100455.13;;;22.53;51.63
77011;BME280;65945;53.148;17.956;2023-09-19T12:06:25;100463.90;;;22.60;50.87
77011;BME280;65945;53.148;17.956;2023-09-19T12:08:53;100462.66;;;22.59;51.11
77011;BME280;65945;53.148;17.956;2023-09-19T12:11:27;100461.46;;;22.57;50.88
77011;BME280;65945;53.148;17.956;2023-09-19T12:13:55;100467.77;;;22.54;50.74
77011;BME280;65945;53.148;17.956;2023-09-19T12:16:25;100469.09;;;22.52;52.33
77011;BME280;65945;53.148;17.956;2023-09-19T12:18:52;100467.92;;;22.55;51.74
77011;BME280;65945;53.148;17.956;2023-09-19T12:21:27;100469.33;;;22.64;51.48
77011;BME280;65945;53.148;17.956;2023-09-19T12:24:04;100469.00;;;22.75;51.07
77011;BME280;65945;53.148;17.956;2023-09-19T12:26:39;100477.06;;;22.82;50.56
77011;BME280;65945;53.148;17.956;2023-09-19T12:29:12;100472.46;;;22.72;51.09
77011;BME280;65945;53.148;17.956;2023-09-19T12:31:51;100482.64;;;22.63;51.65
77011;BME280;65945;53.148;17.956;2023-09-19T12:34:23;100485.05;;;22.47;51.31
77011;BME280;65945;53.148;17.956;2023-09-19T12:37:12;100487.17;;;22.27;52.17
77011;BME280;65945;53.148;17.956;2023-09-19T12:39:43;100488.92;;;22.12;52.29
77011;BME280;65945;53.148;17.956;2023-09-19T12:42:19;100493.15;;;22.03;52.08
77011;BME280;65945;53.148;17.956;2023-09-19T12:44:48;100496.89;;;21.92;52.68
77011;BME280;65945;53.148;17.956;2023-09-19T12:47:17;100494.00;;;21.90;52.33
77011;BME280;65945;53.148;17.956;2023-09-19T12:50:11;100491.27;;;21.90;52.82
77011;BME280;65945;53.148;17.956;2023-09-19T12:52:48;100492.27;;;21.97;52.76
77011;BME280;65945;53.148;17.956;2023-09-19T12:55:21;100493.84;;;21.99;51.25
77011;BME280;65945;53.148;17.956;2023-09-19T13:00:37;100496.09;;;22.01;50.66
77011;BME280;65945;53.148;17.956;2023-09-19T13:11:19;100502.45;;;22.54;48.82
77011;BME280;65945;53.148;17.956;2023-09-19T13:14:13;100496.15;;;22.64;49.20
77011;BME280;65945;53.148;17.956;2023-09-19T13:17:10;100497.77;;;22.64;48.60
77011;BME280;65945;53.148;17.956;2023-09-19T13:22:41;100494.93;;;22.64;48.19
77011;BME280;65945;53.148;17.956;2023-09-19T13:25:12;100499.84;;;22.61;47.61
77011;BME280;65945;53.148;17.956;2023-09-19T13:27:55;100496.86;;;22.56;47.38
77011;BME280;65945;53.148;17.956;2023-09-19T13:30:26;100497.06;;;22.58;47.87
77011;BME280;65945;53.148;17.956;2023-09-19T13:33:05;100497.03;;;22.69;48.81
77011;BME280;65945;53.148;17.956;2023-09-19T13:35:33;100495.52;;;22.85;47.16
77011;BME280;65945;53.148;17.956;2023-09-19T13:38:00;100499.92;;;22.86;46.19
77011;BME280;65945;53.148;17.956;2023-09-19T13:40:27;100500.82;;;22.82;46.02
77011;BME280;65945;53.148;17.956;2023-09-19T13:42:57;100501.11;;;22.70;44.77
77011;BME280;65945;53.148;17.956;2023-09-19T13:45:23;100496.84;;;22.59;45.71
77011;BME280;65945;53.148;17.956;2023-09-19T13:47:53;100489.02;;;22.56;45.91
77011;BME280;65945;53.148;17.956;2023-09-19T13:50:20;100492.64;;;22.57;47.15
77011;BME280;65945;53.148;17.956;2023-09-19T13:52:51;100499.98;;;22.64;46.50
77011;BME280;65945;53.148;17.956;2023-09-19T13:55:17;100506.86;;;22.66;44.62